sensor_id;sensor_type;location;lat;lon;timestamp;P1;durP1;ratioP1;P2;durP2;ratioP2
47153;SDS011;32907;41.412;2.164;2022-10-22T00:00:58;6.63;;;3.80;;
47153;SDS011;32907;41.412;2.164;2022-10-22T00:03:25;7.60;;;3.70;;
47153;SDS011;32907;41.412;2.164;2022-10-22T00:05:53;6.68;;;3.33;;
47153;SDS011;32907;41.412;2.164;2022-10-22T00:08:21;11.13;;;3.63;;
47153;SDS011;32907;41.412;2.164;2022-10-22T00:10:49;9.43;;;3.80;;
47153;SDS011;32907;41.412;2.164;2022-10-22T00:13:16;6.00;;;3.17;;
47153;SDS011;32907;41.412;2.164;2022-10-22T00:15:44;6.05;;;3.20;;
47153;SDS011;32907;41.412;2.164;2022-10-22T00:18:12;7.43;;;3.22;;
47153;SDS011;32907;41.412;2.164;2022-10-22T00:20:40;5.10;;;2.80;;
47153;SDS011;32907;41.412;2.164;2022-10-22T00:23:08;5.50;;;2.65;;
47153;SDS011;32907;41.412;2.164;2022-10-22T00:25:36;6.28;;;2.75;;
47153;SDS011;32907;41.412;2.164;2022-10-22T00:28:03;9.63;;;2.95;;
47153;SDS011;32907;41.412;2.164;2022-10-22T00:30:31;5.25;;;2.80;;
47153;SDS011;32907;41.412;2.164;2022-10-22T00:32:59;9.60;;;3.42;;
47153;SDS011;32907;41.412;2.164;2022-10-22T00:35:27;5.90;;;2.47;;
47153;SDS011;32907;41.412;2.164;2022-10-22T00:37:55;4.55;;;2.80;;
47153;SDS011;32907;41.412;2.164;2022-10-22T00:40:23;7.95;;;3.03;;
47153;SDS011;32907;41.412;2.164;2022-10-22T00:42:51;5.45;;;2.67;;
47153;SDS011;32907;41.412;2.164;2022-10-22T00:45:23;6.10;;;2.70;;
47153;SDS011;32907;41.412;2.164;2022-10-22T00:50:42;5.18;;;2.45;;
47153;SDS011;32907;41.412;2.164;2022-10-22T00:53:21;6.35;;;2.33;;
47153;SDS011;32907;41.412;2.164;2022-10-22T00:55:53;4.78;;;2.30;;
47153;SDS011;32907;41.412;2.164;2022-10-22T00:58:22;4.05;;;1.95;;
47153;SDS011;32907;41.412;2.164;2022-10-22T01:00:53;3.78;;;1.80;;
47153;SDS011;32907;41.412;2.164;2022-10-22T01:03:22;4.25;;;1.95;;
47153;SDS011;32907;41.412;2.164;2022-10-22T01:08:40;8.55;;;2.50;;
47153;SDS011;32907;41.412;2.164;2022-10-22T01:22:11;6.18;;;1.75;;
47153;SDS011;32907;41.412;2.164;2022-10-22T01:24:57;5.10;;;1.58;;
47153;SDS011;32907;41.412;2.164;2022-10-22T01:30:24;3.08;;;1.35;;
47153;SDS011;32907;41.412;2.164;2022-10-22T01:32:53;4.85;;;1.73;;
47153;SDS011;32907;41.412;2.164;2022-10-22T01:35:27;3.13;;;1.38;;
47153;SDS011;32907;41.412;2.164;2022-10-22T01:37:59;5.90;;;1.60;;
47153;SDS011;32907;41.412;2.164;2022-10-22T01:40:30;3.58;;;1.63;;
47153;SDS011;32907;41.412;2.164;2022-10-22T01:43:01;4.38;;;2.15;;
47153;SDS011;32907;41.412;2.164;2022-10-22T01:45:32;4.57;;;1.67;;
47153;SDS011;32907;41.412;2.164;2022-10-22T01:53:35;2.33;;;1.13;;
47153;SDS011;32907;41.412;2.164;2022-10-22T02:01:58;6.28;;;1.40;;
47153;SDS011;32907;41.412;2.164;2022-10-22T02:04:43;3.45;;;1.17;;
47153;SDS011;32907;41.412;2.164;2022-10-22T02:07:17;3.20;;;1.13;;
47153;SDS011;32907;41.412;2.164;2022-10-22T02:09:49;3.65;;;1.20;;
47153;SDS011;32907;41.412;2.164;2022-10-22T02:12:20;2.22;;;1.05;;
47153;SDS011;32907;41.412;2.164;2022-10-22T02:14:50;3.55;;;1.55;;
47153;SDS011;32907;41.412;2.164;2022-10-22T02:17:20;2.75;;;1.42;;
47153;SDS011;32907;41.412;2.164;2022-10-22T02:19:52;3.00;;;1.50;;
47153;SDS011;32907;41.412;2.164;2022-10-22T02:22:24;4.15;;;1.20;;
47153;SDS011;32907;41.412;2.164;2022-10-22T02:24:53;2.85;;;1.15;;
47153;SDS011;32907;41.412;2.164;2022-10-22T02:30:06;3.00;;;1.00;;
47153;SDS011;32907;41.412;2.164;2022-10-22T02:32:41;1.88;;;0.90;;
47153;SDS011;32907;41.412;2.164;2022-10-22T02:35:11;4.28;;;1.25;;
47153;SDS011;32907;41.412;2.164;2022-10-22T02:37:41;3.03;;;1.20;;
47153;SDS011;32907;41.412;2.164;2022-10-22T02:40:09;3.28;;;1.40;;
47153;SDS011;32907;41.412;2.164;2022-10-22T02:42:38;4.18;;;0.98;;
47153;SDS011;32907;41.412;2.164;2022-10-22T02:45:08;5.47;;;1.58;;
47153;SDS011;32907;41.412;2.164;2022-10-22T02:47:36;3.15;;;1.10;;
47153;SDS011;32907;41.412;2.164;2022-10-22T02:50:04;3.00;;;1.08;;
47153;SDS011;32907;41.412;2.164;2022-10-22T02:52:36;2.83;;;1.20;;
47153;SDS011;32907;41.412;2.164;2022-10-22T02:55:04;3.35;;;1.35;;
47153;SDS011;32907;41.412;2.164;2022-10-22T02:57:32;3.05;;;1.50;;
47153;SDS011;32907;41.412;2.164;2022-10-22T03:00:00;2.35;;;1.08;;
47153;SDS011;32907;41.412;2.164;2022-10-22T03:02:28;2.83;;;1.42;;
47153;SDS011;32907;41.412;2.164;2022-10-22T03:04:57;2.17;;;1.10;;
47153;SDS011;32907;41.412;2.164;2022-10-22T03:07:25;3.17;;;1.58;;
47153;SDS011;32907;41.412;2.164;2022-10-22T03:09:53;2.80;;;1.23;;
47153;SDS011;32907;41.412;2.164;2022-10-22T03:12:21;3.22;;;1.05;;
47153;SDS011;32907;41.412;2.164;2022-10-22T03:14:49;4.93;;;1.17;;
47153;SDS011;32907;41.412;2.164;2022-10-22T03:17:17;3.25;;;1.30;;
47153;SDS011;32907;41.412;2.164;2022-10-22T03:19:45;3.38;;;1.38;;
47153;SDS011;32907;41.412;2.164;2022-10-22T03:22:22;3.58;;;1.80;;
47153;SDS011;32907;41.412;2.164;2022-10-22T03:24:54;2.28;;;1.40;;
47153;SDS011;32907;41.412;2.164;2022-10-22T03:27:27;2.45;;;1.42;;
47153;SDS011;32907;41.412;2.164;2022-10-22T03:29:55;2.75;;;1.17;;
47153;SDS011;32907;41.412;2.164;2022-10-22T03:32:25;2.30;;;1.10;;
47153;SDS011;32907;41.412;2.164;2022-10-22T03:34:53;2.75;;;1.08;;
47153;SDS011;32907;41.412;2.164;2022-10-22T03:37:21;1.90;;;1.17;;
47153;SDS011;32907;41.412;2.164;2022-10-22T03:39:51;2.53;;;1.13;;
47153;SDS011;32907;41.412;2.164;2022-10-22T03:42:20;3.30;;;1.40;;
47153;SDS011;32907;41.412;2.164;2022-10-22T03:44:48;3.55;;;1.45;;
47153;SDS011;32907;41.412;2.164;2022-10-22T03:47:16;4.80;;;1.40;;
47153;SDS011;32907;41.412;2.164;2022-10-22T03:49:43;2.03;;;0.90;;
47153;SDS011;32907;41.412;2.164;2022-10-22T03:52:13;2.30;;;1.10;;
47153;SDS011;32907;41.412;2.164;2022-10-22T03:54:41;3.85;;;1.27;;
47153;SDS011;32907;41.412;2.164;2022-10-22T03:57:09;3.33;;;1.02;;
47153;SDS011;32907;41.412;2.164;2022-10-22T03:59:38;3.08;;;0.95;;
47153;SDS011;32907;41.412;2.164;2022-10-22T04:02:08;2.72;;;1.13;;
47153;SDS011;32907;41.412;2.164;2022-10-22T04:04:37;1.95;;;1.10;;
47153;SDS011;32907;41.412;2.164;2022-10-22T04:07:06;2.13;;;0.90;;
47153;SDS011;32907;41.412;2.164;2022-10-22T04:09:34;3.33;;;0.98;;
47153;SDS011;32907;41.412;2.164;2022-10-22T04:12:03;2.53;;;1.15;;
47153;SDS011;32907;41.412;2.164;2022-10-22T04:14:34;1.92;;;0.88;;
47153;SDS011;32907;41.412;2.164;2022-10-22T04:17:01;1.73;;;0.90;;
47153;SDS011;32907;41.412;2.164;2022-10-22T04:19:31;3.00;;;1.30;;
47153;SDS011;32907;41.412;2.164;2022-10-22T04:21:59;4.38;;;0.90;;
47153;SDS011;32907;41.412;2.164;2022-10-22T04:24:28;1.45;;;0.88;;
47153;SDS011;32907;41.412;2.164;2022-10-22T04:26:58;3.05;;;1.25;;
47153;SDS011;32907;41.412;2.164;2022-10-22T04:29:25;2.13;;;0.80;;
47153;SDS011;32907;41.412;2.164;2022-10-22T04:31:53;3.25;;;0.88;;
47153;SDS011;32907;41.412;2.164;2022-10-22T04:34:21;2.80;;;1.10;;
47153;SDS011;32907;41.412;2.164;2022-10-22T04:36:48;1.90;;;0.80;;
47153;SDS011;32907;41.412;2.164;2022-10-22T04:39:16;1.35;;;0.80;;
47153;SDS011;32907;41.412;2.164;2022-10-22T04:41:43;1.73;;;0.90;;
47153;SDS011;32907;41.412;2.164;2022-10-22T04:44:11;2.60;;;0.90;;
47153;SDS011;32907;41.412;2.164;2022-10-22T04:46:43;1.95;;;0.80;;
47153;SDS011;32907;41.412;2.164;2022-10-22T04:49:11;2.10;;;0.77;;
47153;SDS011;32907;41.412;2.164;2022-10-22T04:51:39;2.22;;;1.10;;
47153;SDS011;32907;41.412;2.164;2022-10-22T04:54:07;3.45;;;0.70;;
47153;SDS011;32907;41.412;2.164;2022-10-22T04:56:34;2.80;;;0.90;;
47153;SDS011;32907;41.412;2.164;2022-10-22T04:59:04;2.05;;;1.00;;
47153;SDS011;32907;41.412;2.164;2022-10-22T05:01:36;2.63;;;1.13;;
47153;SDS011;32907;41.412;2.164;2022-10-22T05:04:13;1.80;;;0.70;;
47153;SDS011;32907;41.412;2.164;2022-10-22T05:06:43;1.55;;;0.73;;
47153;SDS011;32907;41.412;2.164;2022-10-22T05:09:13;1.55;;;0.70;;
47153;SDS011;32907;41.412;2.164;2022-10-22T05:11:44;1.50;;;0.65;;
47153;SDS011;32907;41.412;2.164;2022-10-22T05:14:19;2.33;;;0.77;;
47153;SDS011;32907;41.412;2.164;2022-10-22T05:16:49;1.90;;;0.90;;
47153;SDS011;32907;41.412;2.164;2022-10-22T05:19:25;1.30;;;0.60;;
47153;SDS011;32907;41.412;2.164;2022-10-22T05:21:57;1.35;;;0.80;;
47153;SDS011;32907;41.412;2.164;2022-10-22T05:24:28;2.22;;;1.00;;
47153;SDS011;32907;41.412;2.164;2022-10-22T05:26:57;1.50;;;0.80;;
47153;SDS011;32907;41.412;2.164;2022-10-22T05:29:26;2.92;;;0.80;;
47153;SDS011;32907;41.412;2.164;2022-10-22T05:31:54;2.08;;;0.75;;
47153;SDS011;32907;41.412;2.164;2022-10-22T05:34:22;3.28;;;0.80;;
47153;SDS011;32907;41.412;2.164;2022-10-22T05:36:50;2.05;;;0.73;;
47153;SDS011;32907;41.412;2.164;2022-10-22T05:39:17;1.27;;;0.85;;
47153;SDS011;32907;41.412;2.164;2022-10-22T05:41:45;3.92;;;1.02;;
47153;SDS011;32907;41.412;2.164;2022-10-22T05:44:13;1.88;;;1.02;;
47153;SDS011;32907;41.412;2.164;2022-10-22T05:46:41;2.83;;;0.93;;
47153;SDS011;32907;41.412;2.164;2022-10-22T05:49:10;3.03;;;1.08;;
47153;SDS011;32907;41.412;2.164;2022-10-22T05:51:39;2.83;;;1.10;;
47153;SDS011;32907;41.412;2.164;2022-10-22T05:54:07;1.92;;;0.90;;
47153;SDS011;32907;41.412;2.164;2022-10-22T05:56:35;2.92;;;1.17;;
47153;SDS011;32907;41.412;2.164;2022-10-22T05:59:04;2.03;;;1.20;;
47153;SDS011;32907;41.412;2.164;2022-10-22T06:01:32;2.15;;;0.80;;
47153;SDS011;32907;41.412;2.164;2022-10-22T06:04:04;3.08;;;0.75;;
47153;SDS011;32907;41.412;2.164;2022-10-22T06:06:39;3.83;;;0.90;;
47153;SDS011;32907;41.412;2.164;2022-10-22T06:09:17;1.40;;;0.60;;
47153;SDS011;32907;41.412;2.164;2022-10-22T06:11:48;2.40;;;1.00;;
47153;SDS011;32907;41.412;2.164;2022-10-22T06:14:17;3.63;;;0.90;;
47153;SDS011;32907;41.412;2.164;2022-10-22T06:16:46;2.15;;;0.82;;
47153;SDS011;32907;41.412;2.164;2022-10-22T06:19:15;3.15;;;0.95;;
47153;SDS011;32907;41.412;2.164;2022-10-22T06:21:45;2.15;;;1.00;;
47153;SDS011;32907;41.412;2.164;2022-10-22T06:24:13;9.55;;;1.00;;
47153;SDS011;32907;41.412;2.164;2022-10-22T06:26:41;5.07;;;2.08;;
47153;SDS011;32907;41.412;2.164;2022-10-22T06:29:09;2.30;;;1.45;;
47153;SDS011;32907;41.412;2.164;2022-10-22T06:31:37;3.67;;;1.90;;
47153;SDS011;32907;41.412;2.164;2022-10-22T06:34:06;3.28;;;1.95;;
47153;SDS011;32907;41.412;2.164;2022-10-22T06:36:38;4.93;;;1.75;;
47153;SDS011;32907;41.412;2.164;2022-10-22T06:39:12;2.40;;;1.50;;
47153;SDS011;32907;41.412;2.164;2022-10-22T06:41:42;3.53;;;1.30;;
47153;SDS011;32907;41.412;2.164;2022-10-22T06:44:12;1.85;;;1.02;;
47153;SDS011;32907;41.412;2.164;2022-10-22T06:46:42;4.55;;;1.15;;
47153;SDS011;32907;41.412;2.164;2022-10-22T06:49:13;8.00;;;1.35;;
47153;SDS011;32907;41.412;2.164;2022-10-22T06:51:42;13.32;;;2.97;;
47153;SDS011;32907;41.412;2.164;2022-10-22T06:54:10;11.77;;;3.90;;
47153;SDS011;32907;41.412;2.164;2022-10-22T06:56:38;10.52;;;3.35;;
47153;SDS011;32907;41.412;2.164;2022-10-22T06:59:06;14.75;;;4.50;;
47153;SDS011;32907;41.412;2.164;2022-10-22T07:01:35;16.48;;;4.40;;
47153;SDS011;32907;41.412;2.164;2022-10-22T07:04:04;9.57;;;3.30;;
47153;SDS011;32907;41.412;2.164;2022-10-22T07:06:32;12.35;;;2.90;;
47153;SDS011;32907;41.412;2.164;2022-10-22T07:09:00;12.63;;;3.08;;
47153;SDS011;32907;41.412;2.164;2022-10-22T07:11:30;6.78;;;2.20;;
47153;SDS011;32907;41.412;2.164;2022-10-22T07:14:09;9.48;;;2.47;;
47153;SDS011;32907;41.412;2.164;2022-10-22T07:16:38;4.10;;;1.60;;
47153;SDS011;32907;41.412;2.164;2022-10-22T07:19:09;7.07;;;1.88;;
47153;SDS011;32907;41.412;2.164;2022-10-22T07:21:37;6.80;;;2.10;;
47153;SDS011;32907;41.412;2.164;2022-10-22T07:24:05;6.40;;;2.20;;
47153;SDS011;32907;41.412;2.164;2022-10-22T07:26:34;3.47;;;1.70;;
47153;SDS011;32907;41.412;2.164;2022-10-22T07:29:03;2.03;;;0.82;;
47153;SDS011;32907;41.412;2.164;2022-10-22T07:31:31;3.90;;;0.93;;
47153;SDS011;32907;41.412;2.164;2022-10-22T07:33:58;1.83;;;0.50;;
47153;SDS011;32907;41.412;2.164;2022-10-22T07:36:26;2.78;;;0.80;;
47153;SDS011;32907;41.412;2.164;2022-10-22T07:38:57;1.58;;;0.77;;
47153;SDS011;32907;41.412;2.164;2022-10-22T07:41:26;2.15;;;0.90;;
47153;SDS011;32907;41.412;2.164;2022-10-22T07:43:56;2.53;;;0.95;;
47153;SDS011;32907;41.412;2.164;2022-10-22T07:46:24;3.88;;;1.10;;
47153;SDS011;32907;41.412;2.164;2022-10-22T07:48:53;3.78;;;0.80;;
47153;SDS011;32907;41.412;2.164;2022-10-22T07:51:21;3.65;;;0.80;;
47153;SDS011;32907;41.412;2.164;2022-10-22T07:53:49;3.85;;;0.98;;
47153;SDS011;32907;41.412;2.164;2022-10-22T07:56:16;4.70;;;1.10;;
47153;SDS011;32907;41.412;2.164;2022-10-22T07:58:44;2.97;;;1.15;;
47153;SDS011;32907;41.412;2.164;2022-10-22T08:01:12;3.22;;;1.08;;
47153;SDS011;32907;41.412;2.164;2022-10-22T08:03:39;3.90;;;1.67;;
47153;SDS011;32907;41.412;2.164;2022-10-22T08:06:08;4.07;;;1.17;;
47153;SDS011;32907;41.412;2.164;2022-10-22T08:08:39;5.50;;;1.05;;
47153;SDS011;32907;41.412;2.164;2022-10-22T08:11:08;3.80;;;1.00;;
47153;SDS011;32907;41.412;2.164;2022-10-22T08:13:36;3.33;;;0.90;;
47153;SDS011;32907;41.412;2.164;2022-10-22T08:16:12;3.90;;;1.33;;
47153;SDS011;32907;41.412;2.164;2022-10-22T08:18:40;2.28;;;0.77;;
47153;SDS011;32907;41.412;2.164;2022-10-22T08:21:08;2.17;;;0.77;;
47153;SDS011;32907;41.412;2.164;2022-10-22T08:23:37;3.28;;;0.80;;
47153;SDS011;32907;41.412;2.164;2022-10-22T08:26:05;2.55;;;0.93;;
47153;SDS011;32907;41.412;2.164;2022-10-22T08:28:33;6.88;;;1.50;;
47153;SDS011;32907;41.412;2.164;2022-10-22T08:31:04;6.00;;;2.05;;
47153;SDS011;32907;41.412;2.164;2022-10-22T08:33:34;6.95;;;1.95;;
47153;SDS011;32907;41.412;2.164;2022-10-22T08:36:02;6.45;;;2.10;;
47153;SDS011;32907;41.412;2.164;2022-10-22T08:38:29;4.70;;;1.92;;
47153;SDS011;32907;41.412;2.164;2022-10-22T08:41:09;3.33;;;1.85;;
47153;SDS011;32907;41.412;2.164;2022-10-22T08:46:19;7.75;;;4.22;;
47153;SDS011;32907;41.412;2.164;2022-10-22T08:48:49;13.05;;;8.18;;
47153;SDS011;32907;41.412;2.164;2022-10-22T08:51:21;16.50;;;11.23;;
47153;SDS011;32907;41.412;2.164;2022-10-22T08:54:03;16.60;;;9.05;;
47153;SDS011;32907;41.412;2.164;2022-10-22T08:56:35;15.00;;;7.00;;
47153;SDS011;32907;41.412;2.164;2022-10-22T08:59:19;13.23;;;4.70;;
47153;SDS011;32907;41.412;2.164;2022-10-22T09:01:52;13.40;;;3.83;;
47153;SDS011;32907;41.412;2.164;2022-10-22T09:07:23;6.45;;;2.33;;
47153;SDS011;32907;41.412;2.164;2022-10-22T09:09:51;11.27;;;2.17;;
47153;SDS011;32907;41.412;2.164;2022-10-22T09:12:21;6.35;;;1.42;;
47153;SDS011;32907;41.412;2.164;2022-10-22T09:14:50;7.00;;;1.48;;
47153;SDS011;32907;41.412;2.164;2022-10-22T09:17:28;9.73;;;1.55;;
47153;SDS011;32907;41.412;2.164;2022-10-22T09:20:16;9.13;;;2.20;;
47153;SDS011;32907;41.412;2.164;2022-10-22T09:25:31;8.05;;;1.77;;
47153;SDS011;32907;41.412;2.164;2022-10-22T09:28:03;11.23;;;2.25;;
47153;SDS011;32907;41.412;2.164;2022-10-22T09:30:33;10.40;;;2.17;;
47153;SDS011;32907;41.412;2.164;2022-10-22T09:33:15;7.72;;;1.85;;
47153;SDS011;32907;41.412;2.164;2022-10-22T09:38:18;6.75;;;2.05;;
47153;SDS011;32907;41.412;2.164;2022-10-22T09:40:50;6.82;;;1.88;;
47153;SDS011;32907;41.412;2.164;2022-10-22T09:43:20;6.70;;;1.70;;
47153;SDS011;32907;41.412;2.164;2022-10-22T09:45:54;5.78;;;1.45;;
47153;SDS011;32907;41.412;2.164;2022-10-22T09:48:35;4.55;;;0.98;;
47153;SDS011;32907;41.412;2.164;2022-10-22T09:53:43;3.03;;;1.35;;
47153;SDS011;32907;41.412;2.164;2022-10-22T09:56:57;2.67;;;0.65;;
47153;SDS011;32907;41.412;2.164;2022-10-22T09:59:13;4.50;;;0.70;;
47153;SDS011;32907;41.412;2.164;2022-10-22T10:01:42;3.05;;;0.95;;
47153;SDS011;32907;41.412;2.164;2022-10-22T10:04:11;3.85;;;2.10;;
47153;SDS011;32907;41.412;2.164;2022-10-22T10:06:42;3.25;;;1.20;;
47153;SDS011;32907;41.412;2.164;2022-10-22T10:09:18;2.83;;;0.82;;
47153;SDS011;32907;41.412;2.164;2022-10-22T10:12:03;5.95;;;1.30;;
47153;SDS011;32907;41.412;2.164;2022-10-22T10:14:36;2.05;;;0.65;;
47153;SDS011;32907;41.412;2.164;2022-10-22T10:27:42;3.88;;;0.68;;
47153;SDS011;32907;41.412;2.164;2022-10-22T10:30:20;1.75;;;0.73;;
47153;SDS011;32907;41.412;2.164;2022-10-22T10:35:48;2.42;;;0.47;;
47153;SDS011;32907;41.412;2.164;2022-10-22T10:38:32;2.55;;;0.50;;
47153;SDS011;32907;41.412;2.164;2022-10-22T10:43:53;2.70;;;0.70;;
47153;SDS011;32907;41.412;2.164;2022-10-22T10:49:31;1.83;;;0.70;;
47153;SDS011;32907;41.412;2.164;2022-10-22T10:58:02;4.97;;;2.92;;
47153;SDS011;32907;41.412;2.164;2022-10-22T11:00:44;5.57;;;3.50;;
47153;SDS011;32907;41.412;2.164;2022-10-22T11:03:30;6.47;;;3.63;;
47153;SDS011;32907;41.412;2.164;2022-10-22T11:06:08;8.27;;;5.45;;
47153;SDS011;32907;41.412;2.164;2022-10-22T11:08:49;11.73;;;6.25;;
47153;SDS011;32907;41.412;2.164;2022-10-22T11:11:35;9.93;;;5.75;;
47153;SDS011;32907;41.412;2.164;2022-10-22T11:14:09;9.15;;;6.22;;
47153;SDS011;32907;41.412;2.164;2022-10-22T11:16:46;15.73;;;8.52;;
47153;SDS011;32907;41.412;2.164;2022-10-22T11:19:26;10.13;;;6.65;;
47153;SDS011;32907;41.412;2.164;2022-10-22T11:22:23;7.53;;;5.43;;
47153;SDS011;32907;41.412;2.164;2022-10-22T11:24:59;7.28;;;4.95;;
47153;SDS011;32907;41.412;2.164;2022-10-22T11:27:50;8.90;;;5.65;;
47153;SDS011;32907;41.412;2.164;2022-10-22T11:30:33;9.25;;;6.82;;
47153;SDS011;32907;41.412;2.164;2022-10-22T11:33:03;10.35;;;8.88;;
47153;SDS011;32907;41.412;2.164;2022-10-22T11:35:33;14.38;;;10.60;;
47153;SDS011;32907;41.412;2.164;2022-10-22T11:38:05;13.80;;;10.27;;
47153;SDS011;32907;41.412;2.164;2022-10-22T11:40:37;12.52;;;8.73;;
47153;SDS011;32907;41.412;2.164;2022-10-22T11:43:10;9.43;;;6.90;;
47153;SDS011;32907;41.412;2.164;2022-10-22T11:45:55;11.23;;;8.82;;
47153;SDS011;32907;41.412;2.164;2022-10-22T11:48:28;12.32;;;9.68;;
47153;SDS011;32907;41.412;2.164;2022-10-22T11:51:03;13.32;;;9.63;;
47153;SDS011;32907;41.412;2.164;2022-10-22T11:57:21;10.57;;;8.00;;
47153;SDS011;32907;41.412;2.164;2022-10-22T11:59:59;8.77;;;6.03;;
47153;SDS011;32907;41.412;2.164;2022-10-22T12:02:42;8.30;;;5.38;;
47153;SDS011;32907;41.412;2.164;2022-10-22T12:08:37;8.13;;;4.20;;
47153;SDS011;32907;41.412;2.164;2022-10-22T12:10:49;7.03;;;4.05;;
47153;SDS011;32907;41.412;2.164;2022-10-22T12:16:41;17.15;;;11.05;;
47153;SDS011;32907;41.412;2.164;2022-10-22T12:19:24;17.60;;;11.35;;
47153;SDS011;32907;41.412;2.164;2022-10-22T12:21:55;22.38;;;13.45;;
47153;SDS011;32907;41.412;2.164;2022-10-22T12:24:24;14.57;;;9.23;;
47153;SDS011;32907;41.412;2.164;2022-10-22T12:26:58;7.65;;;5.50;;
47153;SDS011;32907;41.412;2.164;2022-10-22T12:29:26;6.82;;;4.70;;
47153;SDS011;32907;41.412;2.164;2022-10-22T12:31:54;7.50;;;4.68;;
47153;SDS011;32907;41.412;2.164;2022-10-22T12:34:23;6.32;;;4.05;;
47153;SDS011;32907;41.412;2.164;2022-10-22T12:36:53;6.07;;;4.07;;
47153;SDS011;32907;41.412;2.164;2022-10-22T12:39:23;7.07;;;3.78;;
47153;SDS011;32907;41.412;2.164;2022-10-22T12:41:53;20.35;;;11.15;;
47153;SDS011;32907;41.412;2.164;2022-10-22T12:44:21;26.85;;;15.35;;
47153;SDS011;32907;41.412;2.164;2022-10-22T12:46:48;21.67;;;14.57;;
47153;SDS011;32907;41.412;2.164;2022-10-22T12:49:31;21.10;;;13.85;;
47153;SDS011;32907;41.412;2.164;2022-10-22T12:52:04;22.52;;;14.57;;
47153;SDS011;32907;41.412;2.164;2022-10-22T12:54:39;19.45;;;10.95;;
47153;SDS011;32907;41.412;2.164;2022-10-22T12:57:14;13.52;;;9.20;;
47153;SDS011;32907;41.412;2.164;2022-10-22T12:59:46;14.40;;;9.57;;
47153;SDS011;32907;41.412;2.164;2022-10-22T13:02:23;13.73;;;9.00;;
47153;SDS011;32907;41.412;2.164;2022-10-22T13:07:45;11.07;;;8.32;;
47153;SDS011;32907;41.412;2.164;2022-10-22T13:12:47;10.98;;;7.28;;
47153;SDS011;32907;41.412;2.164;2022-10-22T13:15:38;11.52;;;6.90;;
47153;SDS011;32907;41.412;2.164;2022-10-22T13:20:57;9.75;;;5.55;;
47153;SDS011;32907;41.412;2.164;2022-10-22T13:23:29;7.93;;;4.88;;
47153;SDS011;32907;41.412;2.164;2022-10-22T13:28:27;13.13;;;8.82;;
47153;SDS011;32907;41.412;2.164;2022-10-22T13:30:59;17.90;;;12.45;;
47153;SDS011;32907;41.412;2.164;2022-10-22T13:33:29;16.38;;;11.70;;
47153;SDS011;32907;41.412;2.164;2022-10-22T13:36:01;16.00;;;11.73;;
47153;SDS011;32907;41.412;2.164;2022-10-22T13:38:30;9.25;;;6.70;;
47153;SDS011;32907;41.412;2.164;2022-10-22T13:40:57;5.85;;;4.30;;
47153;SDS011;32907;41.412;2.164;2022-10-22T13:43:25;6.18;;;4.30;;
47153;SDS011;32907;41.412;2.164;2022-10-22T13:45:54;9.75;;;5.78;;
47153;SDS011;32907;41.412;2.164;2022-10-22T13:48:25;6.97;;;5.40;;
47153;SDS011;32907;41.412;2.164;2022-10-22T13:50:56;9.13;;;4.95;;
47153;SDS011;32907;41.412;2.164;2022-10-22T13:53:24;12.23;;;5.15;;
47153;SDS011;32907;41.412;2.164;2022-10-22T13:55:54;11.23;;;5.07;;
47153;SDS011;32907;41.412;2.164;2022-10-22T13:58:22;12.20;;;5.13;;
47153;SDS011;32907;41.412;2.164;2022-10-22T14:00:55;8.38;;;4.38;;
47153;SDS011;32907;41.412;2.164;2022-10-22T14:03:31;5.82;;;2.85;;
47153;SDS011;32907;41.412;2.164;2022-10-22T14:06:00;3.08;;;1.88;;
47153;SDS011;32907;41.412;2.164;2022-10-22T14:08:28;4.90;;;2.40;;
47153;SDS011;32907;41.412;2.164;2022-10-22T14:10:56;4.80;;;2.33;;
47153;SDS011;32907;41.412;2.164;2022-10-22T14:13:24;4.00;;;2.22;;
47153;SDS011;32907;41.412;2.164;2022-10-22T14:15:52;5.20;;;2.30;;
47153;SDS011;32907;41.412;2.164;2022-10-22T14:18:23;5.40;;;2.50;;
47153;SDS011;32907;41.412;2.164;2022-10-22T14:20:58;3.85;;;2.67;;
47153;SDS011;32907;41.412;2.164;2022-10-22T14:23:31;4.25;;;2.55;;
47153;SDS011;32907;41.412;2.164;2022-10-22T14:26:00;5.03;;;2.28;;
47153;SDS011;32907;41.412;2.164;2022-10-22T14:28:29;4.13;;;2.03;;
47153;SDS011;32907;41.412;2.164;2022-10-22T14:31:08;3.40;;;2.05;;
47153;SDS011;32907;41.412;2.164;2022-10-22T14:33:37;4.03;;;1.60;;
47153;SDS011;32907;41.412;2.164;2022-10-22T14:36:05;1.98;;;1.30;;
47153;SDS011;32907;41.412;2.164;2022-10-22T14:38:33;2.75;;;1.33;;
47153;SDS011;32907;41.412;2.164;2022-10-22T14:41:01;2.25;;;1.05;;
47153;SDS011;32907;41.412;2.164;2022-10-22T14:43:29;4.85;;;1.45;;
47153;SDS011;32907;41.412;2.164;2022-10-22T14:46:00;1.98;;;1.00;;
47153;SDS011;32907;41.412;2.164;2022-10-22T14:48:27;1.75;;;1.00;;
47153;SDS011;32907;41.412;2.164;2022-10-22T14:50:55;2.38;;;1.15;;
47153;SDS011;32907;41.412;2.164;2022-10-22T14:53:23;2.22;;;1.13;;
47153;SDS011;32907;41.412;2.164;2022-10-22T14:55:51;5.75;;;1.45;;
47153;SDS011;32907;41.412;2.164;2022-10-22T14:58:21;4.72;;;1.20;;
47153;SDS011;32907;41.412;2.164;2022-10-22T15:00:49;1.73;;;0.70;;
47153;SDS011;32907;41.412;2.164;2022-10-22T15:03:17;2.70;;;1.13;;
47153;SDS011;32907;41.412;2.164;2022-10-22T15:05:45;3.47;;;1.10;;
47153;SDS011;32907;41.412;2.164;2022-10-22T15:08:13;2.22;;;1.00;;
47153;SDS011;32907;41.412;2.164;2022-10-22T15:10:41;1.45;;;0.70;;
47153;SDS011;32907;41.412;2.164;2022-10-22T15:13:09;1.60;;;0.88;;
47153;SDS011;32907;41.412;2.164;2022-10-22T15:15:39;2.25;;;0.85;;
47153;SDS011;32907;41.412;2.164;2022-10-22T15:18:07;1.85;;;0.68;;
47153;SDS011;32907;41.412;2.164;2022-10-22T15:20:35;1.85;;;0.65;;
47153;SDS011;32907;41.412;2.164;2022-10-22T15:23:03;1.98;;;0.80;;
47153;SDS011;32907;41.412;2.164;2022-10-22T15:25:31;1.65;;;0.75;;
47153;SDS011;32907;41.412;2.164;2022-10-22T15:27:59;1.85;;;0.93;;
47153;SDS011;32907;41.412;2.164;2022-10-22T15:30:35;1.42;;;0.80;;
47153;SDS011;32907;41.412;2.164;2022-10-22T15:33:02;3.40;;;0.98;;
47153;SDS011;32907;41.412;2.164;2022-10-22T15:35:30;2.45;;;1.10;;
47153;SDS011;32907;41.412;2.164;2022-10-22T15:37:58;2.97;;;1.45;;
47153;SDS011;32907;41.412;2.164;2022-10-22T15:40:25;3.15;;;1.40;;
47153;SDS011;32907;41.412;2.164;2022-10-22T15:42:53;3.17;;;1.50;;
47153;SDS011;32907;41.412;2.164;2022-10-22T15:45:21;3.20;;;1.50;;
47153;SDS011;32907;41.412;2.164;2022-10-22T15:47:51;3.20;;;1.45;;
47153;SDS011;32907;41.412;2.164;2022-10-22T15:50:19;1.98;;;0.80;;
47153;SDS011;32907;41.412;2.164;2022-10-22T15:52:46;2.50;;;1.00;;
47153;SDS011;32907;41.412;2.164;2022-10-22T15:55:14;2.45;;;1.13;;
47153;SDS011;32907;41.412;2.164;2022-10-22T15:57:41;2.05;;;1.25;;
47153;SDS011;32907;41.412;2.164;2022-10-22T16:00:10;2.20;;;1.10;;
47153;SDS011;32907;41.412;2.164;2022-10-22T16:02:41;2.47;;;1.20;;
47153;SDS011;32907;41.412;2.164;2022-10-22T16:05:09;1.85;;;0.90;;
47153;SDS011;32907;41.412;2.164;2022-10-22T16:07:36;2.47;;;1.08;;
47153;SDS011;32907;41.412;2.164;2022-10-22T16:10:05;3.10;;;1.70;;
47153;SDS011;32907;41.412;2.164;2022-10-22T16:12:33;1.88;;;1.23;;
47153;SDS011;32907;41.412;2.164;2022-10-22T16:15:02;2.83;;;1.42;;
47153;SDS011;32907;41.412;2.164;2022-10-22T16:17:30;3.38;;;1.52;;
47153;SDS011;32907;41.412;2.164;2022-10-22T16:19:58;1.80;;;1.10;;
47153;SDS011;32907;41.412;2.164;2022-10-22T16:22:25;2.55;;;1.38;;
47153;SDS011;32907;41.412;2.164;2022-10-22T16:24:53;2.80;;;1.58;;
47153;SDS011;32907;41.412;2.164;2022-10-22T16:27:21;2.88;;;1.40;;
47153;SDS011;32907;41.412;2.164;2022-10-22T16:29:49;3.13;;;1.75;;
47153;SDS011;32907;41.412;2.164;2022-10-22T16:32:17;2.83;;;1.50;;
47153;SDS011;32907;41.412;2.164;2022-10-22T16:34:45;3.88;;;1.90;;
47153;SDS011;32907;41.412;2.164;2022-10-22T16:37:13;6.25;;;3.70;;
47153;SDS011;32907;41.412;2.164;2022-10-22T16:39:40;8.00;;;4.43;;